Create Custom Reports and Graphics: Custom Report

Latest Observations

Map

15 Minute Data

Lodi West

Latest Observations

15 Minute Data | America/Los_Angeles
as of 12/19/18 12:10 AM PST
Station Date Time Temp (°F) Dew Pt (°F) RH (%) Wind Dir (°) Wind Spd (mph) Wind Gust (mph) Latest Rain (In) Daily Rain (In) Daily Min Temp (°F) Daily Max Temp (°F) Day
Utter - Wilson 12/19/18 0000 50.1   4.4 48.3   3.3 94   4 SE | 136 2.0   1.8 3.2   2.2 0.00 0.00 38.7   6.4 64.5   3.5 12/18/18
Clarksburg (CLK) 12/19/18 0000 48.7   2.6 48.6   2.4 99   1 ESE | 120 2.8   2.6 4.3   3.1 0.00 0.01 38.9   7.0 62.5   1.5 12/18/18
Gorter - Wilson 12/19/18 0000 45.7   1.1 45.4   1.0 99   0 E | 89 0.9   0.6 2.4   1.1 0.00 0.00 35.2   7.7 64.0   1.3 12/18/18
Hood (HOD) 12/19/18 0000 47.6   1.5 47.6   1.5 100   0 ENE | 74 1.7   0.8 3.2   0.8 0.00 0.00 36.4   9.3 63.2   1.4 12/18/18
Courtland-C3 12/19/18 0000 47.5   1.7 47.1   1.8 98   0 SSW | 193 1.1   0.4 2.2   0.8 0.00 0.00 39.1   6.1 62.2   0.5 12/18/18
Pacific Fruit 12/19/18 0000 48.9   0.9 48.3   0.6 98   1 SSE | 165 0.8   0.3 1.8   0.2 0.00 0.00 38.9   7.3 64.1   1.3 12/18/18
Ryer Island South (RIS) 12/19/18 0000 43.6   4.4 43.4   4.4 99   0 SE | 136 0.0   1.6 0.5   2.2 0.00 0.00 36.5   10.2 65.0   1.7 12/18/18
Guard Rd (Lodi WSW) 12/19/18 0000 47.3   0.8 47.1   0.6 99   1 S | 174 0.4   2.1 1.6   2.2 0.00 0.00 39.8   5.2 64.4   3.8 12/18/18
Claussen 12/19/18 0000 44.0   1.6 43.4   1.8 98   1 SW | 220 0.3   0.8 1.2   1.0 0.00 0.00 40.8   4.2 65.9   1.1 12/18/18

Lodi Central

Latest Observations

15 Minute Data | America/Los_Angeles
as of 12/19/18 12:10 AM PST
Station Date Time Temp (°F) Dew Pt (°F) RH (%) Wind Dir (°) Wind Spd (mph) Wind Gust (mph) Latest Rain (In) Daily Rain (In) Daily Min Temp (°F) Daily Max Temp (°F) Day
Galt West (GAW) 12/19/18 0000 49.1   4.1 47.7   3.6 95   2 SSE | 147 0.3   0.3 1.3   1.3 0.00 0.00 39.1   5.4 63.4   2.6 12/18/18
Valley Oak 12/19/18 0000 47.2   3.2 46.8   3.3 98   0 N | 0 0.0   0.5 0.0   1.3 0.00 0.00 36.6   6.8 63.3   2.6 12/18/18
Thornton 12/18/18 1545 62.1 49.4 63 SSW | 209 0.5 3.8 0.00 0.00 0.0 63.7 12/18/18
Kost Rd 12/19/18 0000 47.1   1.8 47.0   1.7 99   0 ESE | 109 0.0   0.8 0.8   0.9 0.00 0.00 39.4   5.5 64.2   2.7 12/18/18
DeVries Road-North 12/19/18 0000 46.2   0.1 45.9   0.1 99   0 ENE | 74 0.7   0.2 1.9   0.4 0.00 0.00 38.5   6.1 64.0   3.5 12/18/18
Lodi (LangeTwins) 12/19/18 0000 46.4   1.6 45.2   1.5 95   0 ENE | 64 0.0   0.1 1.1   0.3 0.00 0.00 38.7   6.0 62.5   2.5 12/18/18
Acampo (ACP) 12/19/18 0000 46.3   1.3 45.6   1.1 97   1 N | 0 0.0   0.0 0.0   1.1 0.00 0.00 40.1   4.2 64.2   3.3 12/18/18
Lodi West (MDW) 12/18/18 2345 48.2   0.0 47.7   0.5 98   2 SSE | 147 0.2   1.2 1.5   1.3 0.00 0.00 41.4   5.6 64.4   3.4 12/18/18

Latest Observation

19 Stations

15 Minute Data | America/Los_Angeles
as of 12/19/18 12:10 AM PST
Station Date Time Temp (°F) Dew Pt (°F) RH (%) Wind Spd (mph) Wind Dir (°) Wind Gust (mph) Latest Rain (In) Daily Rain (In) Daily Min Temp (°F) Daily Max Temp (°F) Day
Borden Hills 12/19/18 0000 50.4   5.8 47.6   3.1 90   10 2.6   1.6 E | 95 3.0   2.3 0.00 0.00 40.6   3.6 66.1   4.3 12/18/18
Collegeville (COL) 12/19/18 0000 44.6   2.3 44.2   2.5 99   1 0.1   0.9 W | 269 0.8   1.0 0.00 0.00 37.5   7.6 63.1   1.7 12/18/18
Galt-East (EGT) 12/19/18 0000 49.5   6.6 47.0   4.6 91   7 0.8   1.3 ESE | 112 2.0   1.3 0.00 0.00 38.1   4.4 62.4   2.1 12/18/18
Escalon (ESL) 12/19/18 0000 42.2   2.7 42.2   2.7 100   0 0.0   0.0 E | 91 0.5   0.5 0.00 0.00 36.8   7.6 63.8   0.1 12/18/18
Victor - N (Katusha) 12/19/18 0000 46.6   1.6 46.0   1.2 98   2 0.0   0.0 N | 0 0.0   0.0 0.00 0.01 37.8   6.1 63.0   2.5 12/18/18
Gilbeau Ranch 12/19/18 0000 48.8   5.6 46.5   3.4 92   8 0.9   0.6 E | 90 2.6   0.2 0.00 0.00 37.0   5.8 62.9   1.5 12/18/18
Lodi 12/18/18 2130 46.5 45.4 96 0.0 N | 0 0.0 0.00 0.00 37.6 64.0 12/18/18
Lockeford (LOC) 12/19/18 0000 48.5   6.2 43.7   5.8 83   1 0.6   2.5 E | 90 2.9   1.7 0.00 0.00 37.0   5.0 62.5   2.1 12/18/18
Lone Oak-L28 12/19/18 0000 45.8   6.0 44.8   5.0 96   4 0.7   0.6 NE | 35 1.9   0.2 0.00 0.00 34.9   4.4 63.0   2.1 12/18/18
Sheldon (SHL) 12/19/18 0000 50.4   7.0 46.1   3.0 85   14 1.4   1.0 E | 100 3.4   0.0 0.00 0.00 38.3   4.6 64.0   3.9 12/18/18
Sierra Loma-L27 12/19/18 0000 50.2   4.9 47.4   2.5 90   8 1.2   2.0 ENE | 71 2.6   2.5 0.00 0.00 41.2   3.6 64.9   2.4 12/18/18
Simmerhorn (SIM) 12/19/18 0000 50.4   5.6 43.6   0.5 77   16 - - - - - 39.9   4.4 62.5   1.8 12/18/18
Sloughhouse (SLH) 12/19/18 0000 47.2   6.2 44.8   4.1 91   8 0.0   0.0 N | 0 0.0   0.0 0.00 0.00 33.9   6.0 63.6   3.4 12/18/18
5 Wells 12/19/18 0000 49.8   5.7 47.9   3.8 93   7 0.7   2.2 ESE | 102 1.7   3.2 0.00 0.00 39.4   4.7 64.4   3.4 12/18/18